sensor_id;sensor_type;location;lat;lon;timestamp;P1;durP1;ratioP1;P2;durP2;ratioP2
28170;SDS011;15458;53.346;-1.688;2023-02-28T07:25:02;8.13;;;4.03;;
28170;SDS011;15458;53.346;-1.688;2023-02-28T07:27:28;9.02;;;4.95;;
28170;SDS011;15458;53.346;-1.688;2023-02-28T07:29:54;9.90;;;4.45;;
28170;SDS011;15458;53.346;-1.688;2023-02-28T07:32:20;7.70;;;4.10;;
28170;SDS011;15458;53.346;-1.688;2023-02-28T07:34:46;9.88;;;4.25;;
28170;SDS011;15458;53.346;-1.688;2023-02-28T07:37:14;8.85;;;4.40;;
28170;SDS011;15458;53.346;-1.688;2023-02-28T07:39:40;11.00;;;4.28;;
28170;SDS011;15458;53.346;-1.688;2023-02-28T07:42:09;9.10;;;4.38;;
28170;SDS011;15458;53.346;-1.688;2023-02-28T07:44:37;10.10;;;4.55;;
28170;SDS011;15458;53.346;-1.688;2023-02-28T07:47:06;9.02;;;4.32;;
28170;SDS011;15458;53.346;-1.688;2023-02-28T07:49:35;10.52;;;4.72;;
28170;SDS011;15458;53.346;-1.688;2023-02-28T07:52:02;9.75;;;4.70;;
28170;SDS011;15458;53.346;-1.688;2023-02-28T07:54:28;6.55;;;3.75;;
28170;SDS011;15458;53.346;-1.688;2023-02-28T07:56:54;8.75;;;4.57;;
28170;SDS011;15458;53.346;-1.688;2023-02-28T07:59:26;6.80;;;3.90;;
28170;SDS011;15458;53.346;-1.688;2023-02-28T08:01:52;8.32;;;3.63;;
28170;SDS011;15458;53.346;-1.688;2023-02-28T08:04:18;7.38;;;4.05;;
28170;SDS011;15458;53.346;-1.688;2023-02-28T08:06:46;7.80;;;4.40;;
28170;SDS011;15458;53.346;-1.688;2023-02-28T08:09:44;7.22;;;4.15;;
28170;SDS011;15458;53.346;-1.688;2023-02-28T08:12:10;7.93;;;3.80;;
28170;SDS011;15458;53.346;-1.688;2023-02-28T08:14:37;16.35;;;4.65;;
28170;SDS011;15458;53.346;-1.688;2023-02-28T08:17:03;8.13;;;4.03;;
28170;SDS011;15458;53.346;-1.688;2023-02-28T08:19:29;8.55;;;3.95;;
28170;SDS011;15458;53.346;-1.688;2023-02-28T08:21:58;12.00;;;4.40;;
28170;SDS011;15458;53.346;-1.688;2023-02-28T08:24:24;8.55;;;4.25;;
28170;SDS011;15458;53.346;-1.688;2023-02-28T08:26:49;10.43;;;4.18;;
28170;SDS011;15458;53.346;-1.688;2023-02-28T08:29:15;10.55;;;3.78;;
28170;SDS011;15458;53.346;-1.688;2023-02-28T08:31:41;6.88;;;3.58;;
28170;SDS011;15458;53.346;-1.688;2023-02-28T08:34:12;6.38;;;3.65;;
28170;SDS011;15458;53.346;-1.688;2023-02-28T08:36:39;7.85;;;2.92;;
28170;SDS011;15458;53.346;-1.688;2023-02-28T08:39:06;8.13;;;3.22;;
28170;SDS011;15458;53.346;-1.688;2023-02-28T08:41:32;7.57;;;3.10;;
28170;SDS011;15458;53.346;-1.688;2023-02-28T08:43:58;6.95;;;3.30;;
28170;SDS011;15458;53.346;-1.688;2023-02-28T08:46:25;10.30;;;3.40;;
28170;SDS011;15458;53.346;-1.688;2023-02-28T08:48:52;9.48;;;3.53;;
28170;SDS011;15458;53.346;-1.688;2023-02-28T08:51:18;7.03;;;3.85;;
28170;SDS011;15458;53.346;-1.688;2023-02-28T08:53:51;7.00;;;3.00;;
28170;SDS011;15458;53.346;-1.688;2023-02-28T08:56:22;6.07;;;3.42;;
28170;SDS011;15458;53.346;-1.688;2023-02-28T08:58:49;9.88;;;3.45;;
28170;SDS011;15458;53.346;-1.688;2023-02-28T09:01:19;8.55;;;3.30;;
28170;SDS011;15458;53.346;-1.688;2023-02-28T09:03:47;7.85;;;3.30;;
28170;SDS011;15458;53.346;-1.688;2023-02-28T09:06:15;6.72;;;3.08;;
28170;SDS011;15458;53.346;-1.688;2023-02-28T09:08:42;3.50;;;2.80;;
28170;SDS011;15458;53.346;-1.688;2023-02-28T09:11:08;5.85;;;3.30;;
28170;SDS011;15458;53.346;-1.688;2023-02-28T09:13:34;8.20;;;2.95;;
28170;SDS011;15458;53.346;-1.688;2023-02-28T09:16:01;4.45;;;3.03;;
28170;SDS011;15458;53.346;-1.688;2023-02-28T09:18:30;6.32;;;3.08;;
28170;SDS011;15458;53.346;-1.688;2023-02-28T09:20:56;7.15;;;3.42;;
28170;SDS011;15458;53.346;-1.688;2023-02-28T09:23:22;5.80;;;2.80;;
28170;SDS011;15458;53.346;-1.688;2023-02-28T09:25:53;4.85;;;2.38;;
28170;SDS011;15458;53.346;-1.688;2023-02-28T09:28:20;3.53;;;2.45;;
28170;SDS011;15458;53.346;-1.688;2023-02-28T09:30:47;3.03;;;2.08;;
28170;SDS011;15458;53.346;-1.688;2023-02-28T09:33:16;3.72;;;2.20;;
28170;SDS011;15458;53.346;-1.688;2023-02-28T09:35:43;4.75;;;2.20;;
28170;SDS011;15458;53.346;-1.688;2023-02-28T09:38:10;3.55;;;2.10;;
28170;SDS011;15458;53.346;-1.688;2023-02-28T09:40:37;2.80;;;1.90;;
28170;SDS011;15458;53.346;-1.688;2023-02-28T09:43:16;3.90;;;1.67;;
28170;SDS011;15458;53.346;-1.688;2023-02-28T09:45:58;3.08;;;1.88;;
28170;SDS011;15458;53.346;-1.688;2023-02-28T09:48:35;4.50;;;2.58;;
28170;SDS011;15458;53.346;-1.688;2023-02-28T09:51:16;2.92;;;1.42;;
28170;SDS011;15458;53.346;-1.688;2023-02-28T09:54:06;1.73;;;1.25;;
28170;SDS011;15458;53.346;-1.688;2023-02-28T09:56:41;1.73;;;1.30;;
28170;SDS011;15458;53.346;-1.688;2023-02-28T10:02:10;2.35;;;1.58;;
28170;SDS011;15458;53.346;-1.688;2023-02-28T10:04:54;5.43;;;2.00;;
28170;SDS011;15458;53.346;-1.688;2023-02-28T10:10:30;3.55;;;1.67;;
28170;SDS011;15458;53.346;-1.688;2023-02-28T10:13:02;8.40;;;1.63;;
28170;SDS011;15458;53.346;-1.688;2023-02-28T10:15:31;5.85;;;1.63;;
28170;SDS011;15458;53.346;-1.688;2023-02-28T10:18:03;6.63;;;2.03;;
28170;SDS011;15458;53.346;-1.688;2023-02-28T10:20:35;2.20;;;1.52;;
28170;SDS011;15458;53.346;-1.688;2023-02-28T10:25:41;5.15;;;2.00;;
28170;SDS011;15458;53.346;-1.688;2023-02-28T10:28:13;6.72;;;2.13;;
28170;SDS011;15458;53.346;-1.688;2023-02-28T10:30:52;4.60;;;1.80;;
28170;SDS011;15458;53.346;-1.688;2023-02-28T10:33:20;3.40;;;1.98;;
28170;SDS011;15458;53.346;-1.688;2023-02-28T10:35:46;4.72;;;1.88;;
28170;SDS011;15458;53.346;-1.688;2023-02-28T10:38:18;3.47;;;1.52;;
28170;SDS011;15458;53.346;-1.688;2023-02-28T10:40:48;3.58;;;1.83;;
28170;SDS011;15458;53.346;-1.688;2023-02-28T10:45:55;2.42;;;1.58;;
28170;SDS011;15458;53.346;-1.688;2023-02-28T10:48:38;3.55;;;1.67;;
28170;SDS011;15458;53.346;-1.688;2023-02-28T10:51:14;5.90;;;1.95;;
28170;SDS011;15458;53.346;-1.688;2023-02-28T11:01:44;3.40;;;1.38;;
28170;SDS011;15458;53.346;-1.688;2023-02-28T11:04:38;1.67;;;1.40;;
28170;SDS011;15458;53.346;-1.688;2023-02-28T11:07:16;3.05;;;1.33;;
28170;SDS011;15458;53.346;-1.688;2023-02-28T11:09:48;2.47;;;1.50;;
28170;SDS011;15458;53.346;-1.688;2023-02-28T11:12:22;3.50;;;1.70;;
28170;SDS011;15458;53.346;-1.688;2023-02-28T11:17:36;1.50;;;1.40;;
28170;SDS011;15458;53.346;-1.688;2023-02-28T11:20:05;2.63;;;1.58;;
28170;SDS011;15458;53.346;-1.688;2023-02-28T11:22:39;3.95;;;1.45;;
28170;SDS011;15458;53.346;-1.688;2023-02-28T11:25:16;3.17;;;1.40;;
28170;SDS011;15458;53.346;-1.688;2023-02-28T11:27:51;2.30;;;0.90;;
28170;SDS011;15458;53.346;-1.688;2023-02-28T11:33:26;1.98;;;1.05;;
28170;SDS011;15458;53.346;-1.688;2023-02-28T11:36:19;8.70;;;1.42;;
28170;SDS011;15458;53.346;-1.688;2023-02-28T11:38:49;6.18;;;1.13;;
28170;SDS011;15458;53.346;-1.688;2023-02-28T11:47:09;2.30;;;1.23;;
28170;SDS011;15458;53.346;-1.688;2023-02-28T11:49:50;2.97;;;1.33;;
28170;SDS011;15458;53.346;-1.688;2023-02-28T11:55:17;1.70;;;0.93;;
28170;SDS011;15458;53.346;-1.688;2023-02-28T12:03:03;2.20;;;1.10;;
28170;SDS011;15458;53.346;-1.688;2023-02-28T12:05:34;2.40;;;1.30;;
28170;SDS011;15458;53.346;-1.688;2023-02-28T12:17:18;1.63;;;0.98;;
28170;SDS011;15458;53.346;-1.688;2023-02-28T12:27:46;4.63;;;1.42;;
28170;SDS011;15458;53.346;-1.688;2023-02-28T12:30:15;1.25;;;1.10;;
28170;SDS011;15458;53.346;-1.688;2023-02-28T12:32:48;1.42;;;1.33;;
28170;SDS011;15458;53.346;-1.688;2023-02-28T12:35:24;1.23;;;0.93;;
28170;SDS011;15458;53.346;-1.688;2023-02-28T12:43:24;1.33;;;1.23;;
28170;SDS011;15458;53.346;-1.688;2023-02-28T12:46:02;1.15;;;1.02;;
28170;SDS011;15458;53.346;-1.688;2023-02-28T12:48:37;4.72;;;1.60;;
28170;SDS011;15458;53.346;-1.688;2023-02-28T12:51:07;5.15;;;1.58;;
28170;SDS011;15458;53.346;-1.688;2023-02-28T12:53:48;1.55;;;0.90;;
28170;SDS011;15458;53.346;-1.688;2023-02-28T12:56:27;2.58;;;1.30;;
28170;SDS011;15458;53.346;-1.688;2023-02-28T12:59:06;1.55;;;1.13;;
28170;SDS011;15458;53.346;-1.688;2023-02-28T13:01:52;3.40;;;1.10;;
28170;SDS011;15458;53.346;-1.688;2023-02-28T13:07:10;2.63;;;1.00;;
28170;SDS011;15458;53.346;-1.688;2023-02-28T13:09:59;4.20;;;1.63;;
28170;SDS011;15458;53.346;-1.688;2023-02-28T13:12:27;4.65;;;1.20;;
28170;SDS011;15458;53.346;-1.688;2023-02-28T13:15:02;3.15;;;1.35;;
28170;SDS011;15458;53.346;-1.688;2023-02-28T13:17:37;2.97;;;1.33;;
28170;SDS011;15458;53.346;-1.688;2023-02-28T13:20:14;2.85;;;1.40;;
28170;SDS011;15458;53.346;-1.688;2023-02-28T13:22:46;3.75;;;1.52;;
28170;SDS011;15458;53.346;-1.688;2023-02-28T13:28:11;3.05;;;1.60;;
28170;SDS011;15458;53.346;-1.688;2023-02-28T13:33:20;2.38;;;1.73;;
28170;SDS011;15458;53.346;-1.688;2023-02-28T13:38:48;2.17;;;1.60;;
28170;SDS011;15458;53.346;-1.688;2023-02-28T13:46:32;3.92;;;2.10;;
28170;SDS011;15458;53.346;-1.688;2023-02-28T13:51:46;0.98;;;0.90;;
28170;SDS011;15458;53.346;-1.688;2023-02-28T13:59:33;0.85;;;0.75;;
28170;SDS011;15458;53.346;-1.688;2023-02-28T14:02:06;1.10;;;1.00;;
28170;SDS011;15458;53.346;-1.688;2023-02-28T14:05:02;1.40;;;1.02;;
28170;SDS011;15458;53.346;-1.688;2023-02-28T14:07:48;1.00;;;0.90;;
28170;SDS011;15458;53.346;-1.688;2023-02-28T14:13:03;1.10;;;1.00;;
28170;SDS011;15458;53.346;-1.688;2023-02-28T14:15:57;3.88;;;1.00;;
28170;SDS011;15458;53.346;-1.688;2023-02-28T14:18:32;8.88;;;3.38;;
28170;SDS011;15458;53.346;-1.688;2023-02-28T14:26:48;1.98;;;0.90;;
28170;SDS011;15458;53.346;-1.688;2023-02-28T14:38:01;3.63;;;1.27;;
28170;SDS011;15458;53.346;-1.688;2023-02-28T14:40:35;1.25;;;0.90;;
28170;SDS011;15458;53.346;-1.688;2023-02-28T14:43:15;2.60;;;0.80;;
28170;SDS011;15458;53.346;-1.688;2023-02-28T14:45:53;2.42;;;0.93;;
28170;SDS011;15458;53.346;-1.688;2023-02-28T14:48:24;2.33;;;1.33;;
28170;SDS011;15458;53.346;-1.688;2023-02-28T14:50:58;1.40;;;0.70;;
28170;SDS011;15458;53.346;-1.688;2023-02-28T14:53:27;1.02;;;0.70;;
28170;SDS011;15458;53.346;-1.688;2023-02-28T14:55:54;4.55;;;0.80;;
28170;SDS011;15458;53.346;-1.688;2023-02-28T14:58:25;2.15;;;0.90;;
28170;SDS011;15458;53.346;-1.688;2023-02-28T15:00:53;1.63;;;0.70;;
28170;SDS011;15458;53.346;-1.688;2023-02-28T15:05:56;1.75;;;0.70;;
28170;SDS011;15458;53.346;-1.688;2023-02-28T15:08:27;3.42;;;0.70;;
28170;SDS011;15458;53.346;-1.688;2023-02-28T15:10:58;1.38;;;0.70;;
28170;SDS011;15458;53.346;-1.688;2023-02-28T15:13:34;3.78;;;1.05;;
28170;SDS011;15458;53.346;-1.688;2023-02-28T15:16:25;4.25;;;1.00;;
28170;SDS011;15458;53.346;-1.688;2023-02-28T15:19:30;1.05;;;0.70;;
28170;SDS011;15458;53.346;-1.688;2023-02-28T15:21:55;5.05;;;1.42;;
28170;SDS011;15458;53.346;-1.688;2023-02-28T15:29:29;5.50;;;0.95;;
28170;SDS011;15458;53.346;-1.688;2023-02-28T15:34:34;1.80;;;0.93;;
28170;SDS011;15458;53.346;-1.688;2023-02-28T15:43:00;3.30;;;1.00;;
28170;SDS011;15458;53.346;-1.688;2023-02-28T15:48:10;1.95;;;1.23;;
28170;SDS011;15458;53.346;-1.688;2023-02-28T15:50:42;2.35;;;0.80;;
28170;SDS011;15458;53.346;-1.688;2023-02-28T15:53:18;2.10;;;0.95;;
28170;SDS011;15458;53.346;-1.688;2023-02-28T15:56:04;6.25;;;0.90;;
28170;SDS011;15458;53.346;-1.688;2023-02-28T15:58:44;4.53;;;1.10;;
28170;SDS011;15458;53.346;-1.688;2023-02-28T16:04:06;1.40;;;0.90;;
28170;SDS011;15458;53.346;-1.688;2023-02-28T16:06:43;2.03;;;0.95;;
28170;SDS011;15458;53.346;-1.688;2023-02-28T16:09:13;0.90;;;0.70;;
28170;SDS011;15458;53.346;-1.688;2023-02-28T16:11:41;2.47;;;1.33;;
28170;SDS011;15458;53.346;-1.688;2023-02-28T16:14:25;3.13;;;1.10;;
28170;SDS011;15458;53.346;-1.688;2023-02-28T16:16:56;1.23;;;0.75;;
28170;SDS011;15458;53.346;-1.688;2023-02-28T16:19:28;1.65;;;0.70;;
28170;SDS011;15458;53.346;-1.688;2023-02-28T16:21:54;3.50;;;1.33;;
28170;SDS011;15458;53.346;-1.688;2023-02-28T16:24:19;0.80;;;0.80;;
28170;SDS011;15458;53.346;-1.688;2023-02-28T16:26:46;1.65;;;1.00;;
28170;SDS011;15458;53.346;-1.688;2023-02-28T16:29:13;2.53;;;0.80;;
28170;SDS011;15458;53.346;-1.688;2023-02-28T16:31:48;2.33;;;1.02;;
28170;SDS011;15458;53.346;-1.688;2023-02-28T16:34:13;2.22;;;1.25;;
28170;SDS011;15458;53.346;-1.688;2023-02-28T16:36:39;6.70;;;1.40;;
28170;SDS011;15458;53.346;-1.688;2023-02-28T16:39:06;2.38;;;1.23;;
28170;SDS011;15458;53.346;-1.688;2023-02-28T16:41:31;3.72;;;1.55;;
28170;SDS011;15458;53.346;-1.688;2023-02-28T16:43:59;3.25;;;1.45;;
28170;SDS011;15458;53.346;-1.688;2023-02-28T16:46:44;2.92;;;1.60;;
28170;SDS011;15458;53.346;-1.688;2023-02-28T16:49:10;2.28;;;1.20;;
28170;SDS011;15458;53.346;-1.688;2023-02-28T16:51:37;4.82;;;1.35;;
28170;SDS011;15458;53.346;-1.688;2023-02-28T16:54:03;4.72;;;1.48;;
28170;SDS011;15458;53.346;-1.688;2023-02-28T16:56:29;1.90;;;1.30;;
28170;SDS011;15458;53.346;-1.688;2023-02-28T16:58:55;4.43;;;1.27;;
28170;SDS011;15458;53.346;-1.688;2023-02-28T17:01:25;3.22;;;1.30;;
28170;SDS011;15458;53.346;-1.688;2023-02-28T17:03:52;1.73;;;1.15;;
28170;SDS011;15458;53.346;-1.688;2023-02-28T17:06:25;1.95;;;1.40;;
28170;SDS011;15458;53.346;-1.688;2023-02-28T17:08:56;1.70;;;1.23;;
28170;SDS011;15458;53.346;-1.688;2023-02-28T17:11:24;1.88;;;1.30;;
28170;SDS011;15458;53.346;-1.688;2023-02-28T17:13:50;1.65;;;1.20;;
28170;SDS011;15458;53.346;-1.688;2023-02-28T17:18:58;3.47;;;1.23;;
28170;SDS011;15458;53.346;-1.688;2023-02-28T17:21:29;14.18;;;6.18;;
28170;SDS011;15458;53.346;-1.688;2023-02-28T17:23:55;3.72;;;1.85;;
28170;SDS011;15458;53.346;-1.688;2023-02-28T17:26:21;1.70;;;1.10;;
28170;SDS011;15458;53.346;-1.688;2023-02-28T17:28:49;2.10;;;1.88;;
28170;SDS011;15458;53.346;-1.688;2023-02-28T17:31:20;2.97;;;0.98;;
28170;SDS011;15458;53.346;-1.688;2023-02-28T17:33:49;3.45;;;0.90;;
28170;SDS011;15458;53.346;-1.688;2023-02-28T17:36:18;1.13;;;1.02;;
28170;SDS011;15458;53.346;-1.688;2023-02-28T17:38:47;4.30;;;1.02;;
28170;SDS011;15458;53.346;-1.688;2023-02-28T17:41:13;2.90;;;1.20;;
28170;SDS011;15458;53.346;-1.688;2023-02-28T17:43:39;3.58;;;1.65;;
28170;SDS011;15458;53.346;-1.688;2023-02-28T17:46:06;1.35;;;1.00;;
28170;SDS011;15458;53.346;-1.688;2023-02-28T17:48:44;1.00;;;0.70;;
28170;SDS011;15458;53.346;-1.688;2023-02-28T17:51:17;2.50;;;0.75;;
28170;SDS011;15458;53.346;-1.688;2023-02-28T17:53:44;0.70;;;0.70;;
28170;SDS011;15458;53.346;-1.688;2023-02-28T17:56:13;0.93;;;0.60;;
28170;SDS011;15458;53.346;-1.688;2023-02-28T17:58:48;0.70;;;0.70;;
28170;SDS011;15458;53.346;-1.688;2023-02-28T18:01:18;1.98;;;0.60;;
28170;SDS011;15458;53.346;-1.688;2023-02-28T18:03:45;1.27;;;0.90;;
28170;SDS011;15458;53.346;-1.688;2023-02-28T18:06:23;1.75;;;0.98;;
28170;SDS011;15458;53.346;-1.688;2023-02-28T18:08:52;1.42;;;0.90;;
28170;SDS011;15458;53.346;-1.688;2023-02-28T18:11:19;2.50;;;1.13;;
28170;SDS011;15458;53.346;-1.688;2023-02-28T18:13:49;1.47;;;0.90;;
28170;SDS011;15458;53.346;-1.688;2023-02-28T18:16:16;4.38;;;1.50;;
28170;SDS011;15458;53.346;-1.688;2023-02-28T18:18:44;1.63;;;1.25;;
28170;SDS011;15458;53.346;-1.688;2023-02-28T18:21:10;1.98;;;1.00;;
28170;SDS011;15458;53.346;-1.688;2023-02-28T18:23:37;1.45;;;0.98;;
28170;SDS011;15458;53.346;-1.688;2023-02-28T18:26:09;0.85;;;0.70;;
28170;SDS011;15458;53.346;-1.688;2023-02-28T18:28:35;0.70;;;0.70;;
28170;SDS011;15458;53.346;-1.688;2023-02-28T18:31:04;1.05;;;0.95;;
28170;SDS011;15458;53.346;-1.688;2023-02-28T18:33:34;4.30;;;1.40;;
28170;SDS011;15458;53.346;-1.688;2023-02-28T18:36:00;4.30;;;2.20;;
28170;SDS011;15458;53.346;-1.688;2023-02-28T18:38:30;4.43;;;2.42;;
28170;SDS011;15458;53.346;-1.688;2023-02-28T18:41:00;2.60;;;1.85;;
28170;SDS011;15458;53.346;-1.688;2023-02-28T18:43:29;2.70;;;1.70;;
28170;SDS011;15458;53.346;-1.688;2023-02-28T18:45:56;4.03;;;1.75;;
28170;SDS011;15458;53.346;-1.688;2023-02-28T18:48:22;2.78;;;1.75;;
28170;SDS011;15458;53.346;-1.688;2023-02-28T18:50:50;2.20;;;1.40;;
28170;SDS011;15458;53.346;-1.688;2023-02-28T18:53:17;2.10;;;1.48;;
28170;SDS011;15458;53.346;-1.688;2023-02-28T18:55:43;3.63;;;1.90;;
28170;SDS011;15458;53.346;-1.688;2023-02-28T18:58:11;2.65;;;2.05;;
28170;SDS011;15458;53.346;-1.688;2023-02-28T19:00:37;4.68;;;2.40;;
28170;SDS011;15458;53.346;-1.688;2023-02-28T19:03:06;6.90;;;2.60;;
28170;SDS011;15458;53.346;-1.688;2023-02-28T19:05:40;3.47;;;2.95;;
28170;SDS011;15458;53.346;-1.688;2023-02-28T19:08:09;5.20;;;2.63;;
28170;SDS011;15458;53.346;-1.688;2023-02-28T19:13:24;8.00;;;3.73;;
28170;SDS011;15458;53.346;-1.688;2023-02-28T19:15:59;6.50;;;3.63;;
28170;SDS011;15458;53.346;-1.688;2023-02-28T19:18:29;5.68;;;3.55;;
28170;SDS011;15458;53.346;-1.688;2023-02-28T19:20:55;6.65;;;3.80;;
28170;SDS011;15458;53.346;-1.688;2023-02-28T19:23:21;4.43;;;3.03;;
28170;SDS011;15458;53.346;-1.688;2023-02-28T19:25:46;5.57;;;3.00;;
28170;SDS011;15458;53.346;-1.688;2023-02-28T19:28:12;5.10;;;3.25;;
28170;SDS011;15458;53.346;-1.688;2023-02-28T19:30:38;4.85;;;3.03;;
28170;SDS011;15458;53.346;-1.688;2023-02-28T19:33:04;3.00;;;2.25;;
28170;SDS011;15458;53.346;-1.688;2023-02-28T19:35:32;4.97;;;3.03;;
28170;SDS011;15458;53.346;-1.688;2023-02-28T19:37:58;3.75;;;2.70;;
28170;SDS011;15458;53.346;-1.688;2023-02-28T19:40:24;7.88;;;2.92;;
28170;SDS011;15458;53.346;-1.688;2023-02-28T19:42:50;5.38;;;3.53;;
28170;SDS011;15458;53.346;-1.688;2023-02-28T19:45:16;5.90;;;4.03;;
28170;SDS011;15458;53.346;-1.688;2023-02-28T19:47:41;7.15;;;3.90;;
28170;SDS011;15458;53.346;-1.688;2023-02-28T19:50:08;7.82;;;3.63;;
28170;SDS011;15458;53.346;-1.688;2023-02-28T19:52:37;6.38;;;4.00;;
28170;SDS011;15458;53.346;-1.688;2023-02-28T19:55:05;5.68;;;3.38;;
28170;SDS011;15458;53.346;-1.688;2023-02-28T19:57:31;7.15;;;3.28;;
28170;SDS011;15458;53.346;-1.688;2023-02-28T19:59:57;4.70;;;3.25;;
28170;SDS011;15458;53.346;-1.688;2023-02-28T20:02:23;4.25;;;2.92;;
28170;SDS011;15458;53.346;-1.688;2023-02-28T20:04:50;4.53;;;3.08;;
28170;SDS011;15458;53.346;-1.688;2023-02-28T20:07:21;3.50;;;2.67;;
28170;SDS011;15458;53.346;-1.688;2023-02-28T20:09:49;3.10;;;2.40;;
28170;SDS011;15458;53.346;-1.688;2023-02-28T20:12:14;3.97;;;2.30;;
28170;SDS011;15458;53.346;-1.688;2023-02-28T20:14:41;4.20;;;2.42;;
28170;SDS011;15458;53.346;-1.688;2023-02-28T20:17:07;4.32;;;2.70;;
28170;SDS011;15458;53.346;-1.688;2023-02-28T20:19:33;4.60;;;3.05;;
28170;SDS011;15458;53.346;-1.688;2023-02-28T20:21:59;5.95;;;3.10;;
28170;SDS011;15458;53.346;-1.688;2023-02-28T20:24:29;7.38;;;3.85;;
28170;SDS011;15458;53.346;-1.688;2023-02-28T20:26:54;8.15;;;4.25;;
28170;SDS011;15458;53.346;-1.688;2023-02-28T20:29:21;7.43;;;4.05;;
28170;SDS011;15458;53.346;-1.688;2023-02-28T20:31:47;7.65;;;4.05;;
28170;SDS011;15458;53.346;-1.688;2023-02-28T20:34:13;9.57;;;4.75;;
28170;SDS011;15458;53.346;-1.688;2023-02-28T20:36:43;8.70;;;4.57;;
28170;SDS011;15458;53.346;-1.688;2023-02-28T20:39:09;6.53;;;4.60;;
28170;SDS011;15458;53.346;-1.688;2023-02-28T20:41:36;6.03;;;4.32;;
28170;SDS011;15458;53.346;-1.688;2023-02-28T20:44:01;9.25;;;4.95;;
28170;SDS011;15458;53.346;-1.688;2023-02-28T20:46:28;6.22;;;3.70;;
28170;SDS011;15458;53.346;-1.688;2023-02-28T20:48:55;5.57;;;3.58;;
28170;SDS011;15458;53.346;-1.688;2023-02-28T20:51:21;7.22;;;3.83;;
28170;SDS011;15458;53.346;-1.688;2023-02-28T20:53:48;7.18;;;3.65;;
28170;SDS011;15458;53.346;-1.688;2023-02-28T20:56:14;6.63;;;3.63;;
28170;SDS011;15458;53.346;-1.688;2023-02-28T20:58:43;11.57;;;4.78;;
28170;SDS011;15458;53.346;-1.688;2023-02-28T21:01:17;7.55;;;3.72;;
28170;SDS011;15458;53.346;-1.688;2023-02-28T21:03:50;5.43;;;3.72;;
28170;SDS011;15458;53.346;-1.688;2023-02-28T21:06:22;9.18;;;4.05;;
28170;SDS011;15458;53.346;-1.688;2023-02-28T21:08:52;9.05;;;4.18;;
28170;SDS011;15458;53.346;-1.688;2023-02-28T21:11:23;8.80;;;3.53;;
28170;SDS011;15458;53.346;-1.688;2023-02-28T21:13:51;5.68;;;2.47;;
28170;SDS011;15458;53.346;-1.688;2023-02-28T21:16:23;3.20;;;2.35;;
28170;SDS011;15458;53.346;-1.688;2023-02-28T21:18:50;2.57;;;2.37;;
28170;SDS011;15458;53.346;-1.688;2023-02-28T21:21:18;4.50;;;2.05;;
28170;SDS011;15458;53.346;-1.688;2023-02-28T21:23:45;4.05;;;2.67;;
28170;SDS011;15458;53.346;-1.688;2023-02-28T21:26:15;6.13;;;3.08;;
28170;SDS011;15458;53.346;-1.688;2023-02-28T21:28:47;7.28;;;3.75;;
28170;SDS011;15458;53.346;-1.688;2023-02-28T21:31:17;7.47;;;3.58;;
28170;SDS011;15458;53.346;-1.688;2023-02-28T21:33:47;8.05;;;4.90;;
28170;SDS011;15458;53.346;-1.688;2023-02-28T21:36:14;11.40;;;5.47;;
28170;SDS011;15458;53.346;-1.688;2023-02-28T21:38:41;12.93;;;5.05;;
28170;SDS011;15458;53.346;-1.688;2023-02-28T21:41:09;12.25;;;6.03;;
28170;SDS011;15458;53.346;-1.688;2023-02-28T21:43:43;9.57;;;5.05;;
28170;SDS011;15458;53.346;-1.688;2023-02-28T21:46:11;11.50;;;5.25;;
28170;SDS011;15458;53.346;-1.688;2023-02-28T21:48:39;11.30;;;5.35;;
28170;SDS011;15458;53.346;-1.688;2023-02-28T21:51:06;14.70;;;5.28;;
28170;SDS011;15458;53.346;-1.688;2023-02-28T21:53:36;13.00;;;4.87;;
28170;SDS011;15458;53.346;-1.688;2023-02-28T21:56:03;13.38;;;5.50;;
28170;SDS011;15458;53.346;-1.688;2023-02-28T21:58:36;11.88;;;5.30;;
28170;SDS011;15458;53.346;-1.688;2023-02-28T22:01:05;12.13;;;5.68;;
28170;SDS011;15458;53.346;-1.688;2023-02-28T22:03:34;9.25;;;5.45;;
28170;SDS011;15458;53.346;-1.688;2023-02-28T22:06:00;8.48;;;4.65;;
28170;SDS011;15458;53.346;-1.688;2023-02-28T22:08:37;5.43;;;2.15;;
28170;SDS011;15458;53.346;-1.688;2023-02-28T22:11:07;3.65;;;2.30;;
28170;SDS011;15458;53.346;-1.688;2023-02-28T22:13:36;3.88;;;2.42;;
28170;SDS011;15458;53.346;-1.688;2023-02-28T22:16:07;4.72;;;3.00;;
28170;SDS011;15458;53.346;-1.688;2023-02-28T22:18:34;5.88;;;3.03;;
28170;SDS011;15458;53.346;-1.688;2023-02-28T22:21:01;7.35;;;3.00;;
28170;SDS011;15458;53.346;-1.688;2023-02-28T22:23:27;5.65;;;3.28;;
28170;SDS011;15458;53.346;-1.688;2023-02-28T22:25:59;5.30;;;3.08;;
28170;SDS011;15458;53.346;-1.688;2023-02-28T22:28:25;3.92;;;2.83;;
28170;SDS011;15458;53.346;-1.688;2023-02-28T22:30:54;10.00;;;3.55;;
28170;SDS011;15458;53.346;-1.688;2023-02-28T22:33:20;7.05;;;3.22;;
28170;SDS011;15458;53.346;-1.688;2023-02-28T22:35:49;6.28;;;3.05;;
28170;SDS011;15458;53.346;-1.688;2023-02-28T22:38:15;5.15;;;3.33;;
28170;SDS011;15458;53.346;-1.688;2023-02-28T22:40:43;12.40;;;4.82;;
28170;SDS011;15458;53.346;-1.688;2023-02-28T22:43:12;7.60;;;4.45;;
28170;SDS011;15458;53.346;-1.688;2023-02-28T22:45:38;9.98;;;4.75;;
28170;SDS011;15458;53.346;-1.688;2023-02-28T22:48:06;11.90;;;5.38;;
28170;SDS011;15458;53.346;-1.688;2023-02-28T22:50:33;9.25;;;4.05;;
28170;SDS011;15458;53.346;-1.688;2023-02-28T22:52:59;8.30;;;4.38;;
28170;SDS011;15458;53.346;-1.688;2023-02-28T22:55:25;7.13;;;4.00;;
28170;SDS011;15458;53.346;-1.688;2023-02-28T22:57:51;7.93;;;3.50;;
28170;SDS011;15458;53.346;-1.688;2023-02-28T23:00:19;8.77;;;2.92;;
28170;SDS011;15458;53.346;-1.688;2023-02-28T23:02:46;6.43;;;3.17;;
28170;SDS011;15458;53.346;-1.688;2023-02-28T23:05:15;13.05;;;3.70;;
28170;SDS011;15458;53.346;-1.688;2023-02-28T23:07:41;8.52;;;4.25;;
28170;SDS011;15458;53.346;-1.688;2023-02-28T23:10:08;5.45;;;3.75;;
28170;SDS011;15458;53.346;-1.688;2023-02-28T23:12:36;5.07;;;2.72;;
28170;SDS011;15458;53.346;-1.688;2023-02-28T23:15:14;3.00;;;1.90;;
28170;SDS011;15458;53.346;-1.688;2023-02-28T23:17:44;2.88;;;1.60;;
28170;SDS011;15458;53.346;-1.688;2023-02-28T23:20:11;2.78;;;1.48;;
28170;SDS011;15458;53.346;-1.688;2023-02-28T23:22:37;2.20;;;1.33;;
28170;SDS011;15458;53.346;-1.688;2023-02-28T23:25:03;3.58;;;1.70;;
28170;SDS011;15458;53.346;-1.688;2023-02-28T23:27:29;4.63;;;1.92;;
28170;SDS011;15458;53.346;-1.688;2023-02-28T23:29:55;2.10;;;1.50;;
28170;SDS011;15458;53.346;-1.688;2023-02-28T23:32:21;5.20;;;1.77;;
28170;SDS011;15458;53.346;-1.688;2023-02-28T23:34:48;8.23;;;1.80;;
28170;SDS011;15458;53.346;-1.688;2023-02-28T23:37:14;6.18;;;2.38;;
28170;SDS011;15458;53.346;-1.688;2023-02-28T23:39:39;7.50;;;2.42;;
28170;SDS011;15458;53.346;-1.688;2023-02-28T23:42:05;13.02;;;3.10;;
28170;SDS011;15458;53.346;-1.688;2023-02-28T23:44:31;6.10;;;2.38;;
28170;SDS011;15458;53.346;-1.688;2023-02-28T23:46:57;5.47;;;2.35;;
28170;SDS011;15458;53.346;-1.688;2023-02-28T23:49:23;9.85;;;3.60;;
28170;SDS011;15458;53.346;-1.688;2023-02-28T23:51:49;5.72;;;2.65;;
28170;SDS011;15458;53.346;-1.688;2023-02-28T23:54:18;6.65;;;2.00;;
28170;SDS011;15458;53.346;-1.688;2023-02-28T23:56:46;6.88;;;2.28;;
28170;SDS011;15458;53.346;-1.688;2023-02-28T23:59:12;6.75;;;2.50;;
